createdAt,value
2023-02-24T00:00:51.770Z,100650.94
2023-02-24T00:05:59.422Z,100627.72
2023-02-24T00:11:11.411Z,100653.66
2023-02-24T00:16:35.527Z,100650.66
2023-02-24T00:21:45.419Z,100656.41
2023-02-24T00:27:03.773Z,100645.75
2023-02-24T00:32:22.554Z,100659.69
2023-02-24T00:37:29.746Z,100648.50
2023-02-24T00:42:50.220Z,100660.53
2023-02-24T00:47:57.723Z,100660.25
2023-02-24T00:53:06.854Z,100647.13
2023-02-24T00:58:09.568Z,100654.22
2023-02-24T01:03:17.083Z,100662.97
2023-02-24T01:08:22.000Z,100684.00
2023-02-24T01:13:28.045Z,100714.88
2023-02-24T01:18:39.264Z,100696.69
2023-02-24T01:23:44.162Z,100723.00
2023-02-24T01:28:52.264Z,100715.44
2023-02-24T01:34:05.945Z,100730.38
2023-02-24T01:39:12.302Z,100752.38
2023-02-24T01:44:14.807Z,100750.91
2023-02-24T01:49:36.993Z,100748.09
2023-02-24T01:55:00.167Z,100746.41
2023-02-24T02:00:33.521Z,100733.53
2023-02-24T02:05:41.176Z,100707.03
2023-02-24T02:10:51.039Z,100748.84
2023-02-24T02:20:31.480Z,100728.78
2023-02-24T02:26:03.198Z,100710.81
2023-02-24T02:31:27.834Z,100691.53
2023-02-24T02:36:50.224Z,100705.44
2023-02-24T02:42:20.515Z,100689.91
2023-02-24T02:47:43.544Z,100703.53
2023-02-24T02:53:10.692Z,100714.94
2023-02-24T02:58:23.222Z,100710.00
2023-02-24T03:03:29.186Z,100699.94
2023-02-24T03:08:39.022Z,100696.97
2023-02-24T03:13:51.520Z,100713.28
2023-02-24T03:19:06.478Z,100712.16
2023-02-24T03:24:10.103Z,100707.19
2023-02-24T03:29:24.212Z,100710.41
2023-02-24T03:34:43.121Z,100685.69
2023-02-24T03:39:51.931Z,100705.28
2023-02-24T03:45:00.264Z,100706.06
2023-02-24T03:50:02.753Z,100703.03
2023-02-24T03:55:34.391Z,100688.88
2023-02-24T04:00:49.985Z,100701.09
2023-02-24T04:06:15.982Z,100701.63
2023-02-24T04:11:41.488Z,100699.16
2023-02-24T04:16:58.060Z,100692.91
2023-02-24T04:22:01.419Z,100696.69
2023-02-24T04:27:11.606Z,100693.16
2023-02-24T04:32:22.072Z,100690.69
2023-02-24T04:37:26.706Z,100696.41
2023-02-24T04:42:28.934Z,100697.22
2023-02-24T04:47:42.998Z,100708.91
2023-02-24T04:52:47.808Z,100708.34
2023-02-24T04:57:55.583Z,100702.09
2023-02-24T05:09:22.467Z,100706.75
2023-02-24T05:14:29.095Z,100708.91
2023-02-24T05:19:51.866Z,100706.47
2023-02-24T05:24:59.560Z,100717.59
2023-02-24T05:35:22.923Z,100721.66
2023-02-24T05:40:36.013Z,100714.00
2023-02-24T05:45:43.299Z,100703.66
2023-02-24T05:50:54.967Z,100707.69
2023-02-24T05:56:06.562Z,100724.84
2023-02-24T06:01:17.121Z,100725.91
2023-02-24T06:06:27.329Z,100727.00
2023-02-24T06:11:31.766Z,100723.72
2023-02-24T06:16:46.149Z,100712.03
2023-02-24T06:22:06.799Z,100716.63
2023-02-24T06:27:13.595Z,100727.50
2023-02-24T06:32:26.157Z,100718.78
2023-02-24T06:37:31.589Z,100723.66
2023-02-24T06:42:40.726Z,100731.75
2023-02-24T06:47:53.255Z,100719.75
2023-02-24T06:53:12.974Z,100730.03
2023-02-24T06:58:24.494Z,100717.44
2023-02-24T07:03:49.391Z,100725.25
2023-02-24T07:14:20.457Z,100743.47
2023-02-24T07:19:29.559Z,100748.69
2023-02-24T07:24:46.777Z,100759.91
2023-02-24T07:30:02.813Z,100761.56
2023-02-24T07:35:20.849Z,100763.19
2023-02-24T07:40:26.438Z,100765.34
2023-02-24T07:45:39.614Z,100784.38
2023-02-24T07:56:20.260Z,100788.16
2023-02-24T08:01:42.385Z,100798.00
2023-02-24T08:06:57.804Z,100798.75
2023-02-24T08:12:02.672Z,100804.13
2023-02-24T08:17:09.635Z,100795.38
2023-02-24T08:22:21.134Z,100809.31
2023-02-24T08:27:39.228Z,100809.75
2023-02-24T08:32:44.098Z,100810.03
2023-02-24T08:37:57.510Z,100809.59
2023-02-24T08:43:22.798Z,100818.25
2023-02-24T08:48:47.496Z,100827.25
2023-02-24T08:53:56.193Z,100817.03
2023-02-24T08:59:29.643Z,100829.44
2023-02-24T09:04:37.171Z,100846.44
2023-02-24T09:09:54.034Z,100839.72
2023-02-24T09:15:07.085Z,100846.25
2023-02-24T09:20:29.766Z,100837.91
2023-02-24T09:25:50.685Z,100839.56
2023-02-24T09:31:01.726Z,100850.47
2023-02-24T09:36:42.601Z,100844.28
2023-02-24T09:42:14.139Z,100840.66
2023-02-24T09:47:47.962Z,100848.41
2023-02-24T09:53:17.677Z,100870.44
2023-02-24T09:58:47.901Z,100867.03
2023-02-24T10:04:20.996Z,100873.16
2023-02-24T10:09:47.571Z,100882.75
2023-02-24T10:15:22.858Z,100899.25
2023-02-24T10:20:49.039Z,100892.78
2023-02-24T10:26:07.119Z,100894.19
2023-02-24T10:31:43.232Z,100894.59
2023-02-24T10:36:52.953Z,100896.19
2023-02-24T10:42:19.793Z,100887.25
2023-02-24T10:47:35.813Z,100877.44
2023-02-24T10:53:04.882Z,100866.25
2023-02-24T10:59:08.356Z,100877.69
2023-02-24T11:04:34.502Z,100854.53
2023-02-24T11:10:00.850Z,100859.25
2023-02-24T11:15:49.595Z,100848.22
2023-02-24T11:21:14.898Z,100835.81
2023-02-24T11:26:40.122Z,100856.38
2023-02-24T11:32:09.359Z,100846.50
2023-02-24T11:37:45.541Z,100834.69
2023-02-24T11:42:57.206Z,100827.69
2023-02-24T11:48:24.949Z,100818.34
2023-02-24T11:53:52.024Z,100805.28
2023-02-24T11:59:25.372Z,100783.09
2023-02-24T12:04:50.536Z,100768.25
2023-02-24T12:10:24.481Z,100758.88
2023-02-24T12:15:56.612Z,100757.78
2023-02-24T12:21:23.651Z,100754.00
2023-02-24T12:26:56.926Z,100749.59
2023-02-24T12:32:35.349Z,100745.94
2023-02-24T12:38:06.208Z,100731.59
2023-02-24T12:43:33.799Z,100707.41
2023-02-24T12:48:59.372Z,100718.06
2023-02-24T12:54:24.676Z,100704.41
2023-02-24T12:59:46.218Z,100699.13
2023-02-24T13:05:41.888Z,100669.94
2023-02-24T13:10:52.099Z,100652.03
2023-02-24T13:16:01.943Z,100641.53
2023-02-24T13:21:28.294Z,100643.78
2023-02-24T13:26:34.688Z,100631.25
2023-02-24T13:31:48.559Z,100609.75
2023-02-24T13:36:54.166Z,100606.13
2023-02-24T13:42:31.464Z,100598.38
2023-02-24T13:47:52.923Z,100593.81
2023-02-24T13:53:34.793Z,100590.28
2023-02-24T13:59:09.656Z,100580.06
2023-02-24T14:04:21.689Z,100582.13
2023-02-24T14:09:52.321Z,100577.50
2023-02-24T14:15:02.370Z,100577.63
2023-02-24T14:20:29.847Z,100568.88
2023-02-24T14:25:42.171Z,100557.44
2023-02-24T14:30:59.919Z,100568.97
2023-02-24T14:36:14.771Z,100576.13
2023-02-24T14:41:30.784Z,100568.56
2023-02-24T14:46:50.586Z,100576.59
2023-02-24T14:52:20.274Z,100567.31
2023-02-24T14:57:42.269Z,100556.84
2023-02-24T15:03:20.869Z,100539.44
2023-02-24T15:08:40.252Z,100531.38
2023-02-24T15:13:53.226Z,100534.41
2023-02-24T15:19:01.952Z,100515.19
2023-02-24T15:24:37.497Z,100516.78
2023-02-24T15:30:00.851Z,100511.75
2023-02-24T15:35:06.642Z,100513.25
2023-02-24T15:40:31.647Z,100520.50
2023-02-24T15:45:43.389Z,100521.25
2023-02-24T15:50:53.950Z,100515.94
2023-02-24T15:56:07.167Z,100509.44
2023-02-24T16:01:20.192Z,100509.75
2023-02-24T16:06:37.747Z,100505.16
2023-02-24T16:11:47.294Z,100497.53
2023-02-24T16:17:01.113Z,100504.69
2023-02-24T16:22:15.862Z,100492.78
2023-02-24T16:27:22.121Z,100491.75
2023-02-24T16:32:30.356Z,100489.63
2023-02-24T16:37:50.303Z,100476.00
2023-02-24T16:43:00.426Z,100476.59
2023-02-24T16:48:27.672Z,100471.69
2023-02-24T16:53:33.740Z,100469.31
2023-02-24T16:58:41.525Z,100481.16
2023-02-24T17:03:49.142Z,100486.16
2023-02-24T17:08:56.044Z,100489.59
2023-02-24T17:14:05.860Z,100480.91
2023-02-24T17:19:22.538Z,100481.56
2023-02-24T17:24:35.631Z,100486.63
2023-02-24T17:29:50.610Z,100499.81
2023-02-24T17:34:59.576Z,100507.59
2023-02-24T17:40:06.598Z,100501.63
2023-02-24T17:45:14.241Z,100505.00
2023-02-24T17:50:17.901Z,100508.88
2023-02-24T17:55:23.319Z,100511.41
2023-02-24T18:00:29.192Z,100517.19
2023-02-24T18:05:36.669Z,100518.56
2023-02-24T18:10:40.239Z,100526.53
2023-02-24T18:15:42.347Z,100526.31
2023-02-24T18:20:44.994Z,100522.81
2023-02-24T18:25:47.630Z,100524.22
2023-02-24T18:30:49.749Z,100521.25
2023-02-24T18:36:01.045Z,100532.75
2023-02-24T18:41:09.168Z,100540.44
2023-02-24T18:46:13.686Z,100544.53
2023-02-24T18:51:22.406Z,100544.28
2023-02-24T18:56:31.158Z,100545.13
2023-02-24T19:01:38.898Z,100542.69
2023-02-24T19:06:42.232Z,100545.97
2023-02-24T19:11:44.414Z,100564.00
2023-02-24T19:16:46.434Z,100555.81
2023-02-24T19:21:49.594Z,100555.28
2023-02-24T19:26:53.447Z,100560.22
2023-02-24T19:31:59.476Z,100547.66
2023-02-24T19:37:01.803Z,100547.66
2023-02-24T19:42:03.970Z,100565.09
2023-02-24T19:47:05.853Z,100570.00
2023-02-24T19:52:08.092Z,100585.56
2023-02-24T19:57:10.453Z,100588.00
2023-02-24T20:02:17.144Z,100594.28
2023-02-24T20:07:19.328Z,100615.53
2023-02-24T20:12:25.372Z,100612.81
2023-02-24T20:17:37.913Z,100618.53
2023-02-24T20:22:45.911Z,100610.38
2023-02-24T20:28:03.175Z,100616.91
2023-02-24T20:33:11.655Z,100612.53
2023-02-24T20:38:17.064Z,100609.53
2023-02-24T20:43:23.044Z,100612.25
2023-02-24T20:48:51.516Z,100603.25
2023-02-24T20:54:01.885Z,100600.53
2023-02-24T20:59:17.772Z,100594.50
2023-02-24T21:04:21.547Z,100596.13
2023-02-24T21:09:30.316Z,100581.69
2023-02-24T21:14:35.579Z,100584.69
2023-02-24T21:19:45.744Z,100576.50
2023-02-24T21:24:50.828Z,100573.22
2023-02-24T21:30:00.239Z,100560.69
2023-02-24T21:35:11.773Z,100565.03
2023-02-24T21:40:18.741Z,100557.41
2023-02-24T21:45:27.972Z,100561.50
2023-02-24T21:55:52.309Z,100549.75
2023-02-24T22:00:58.398Z,100547.03
2023-02-24T22:06:04.849Z,100550.84
2023-02-24T22:11:19.369Z,100551.94
2023-02-24T22:16:27.438Z,100550.03
2023-02-24T22:21:34.799Z,100553.84
2023-02-24T22:26:46.782Z,100549.19
2023-02-24T22:31:52.079Z,100563.34
2023-02-24T22:36:58.481Z,100553.00
2023-02-24T22:42:04.522Z,100552.44
2023-02-24T22:47:10.739Z,100554.91
2023-02-24T22:52:18.128Z,100547.28
2023-02-24T22:57:21.693Z,100538.53
2023-02-24T23:02:32.690Z,100533.38
2023-02-24T23:07:50.794Z,100539.09
2023-02-24T23:13:15.288Z,100531.72
2023-02-24T23:18:21.777Z,100530.38
2023-02-24T23:23:29.343Z,100526.28
2023-02-24T23:28:57.771Z,100529.00
2023-02-24T23:34:10.198Z,100523.03
2023-02-24T23:39:40.431Z,100520.28
2023-02-24T23:44:52.543Z,100523.28
2023-02-24T23:50:07.212Z,100520.84
2023-02-24T23:55:32.264Z,100509.41
